createdAt,value
2018-03-14T00:00:39.469Z,82.59
2018-03-14T00:01:39.463Z,82.12
2018-03-14T00:02:39.461Z,80.98
2018-03-14T00:03:39.456Z,81.74
2018-03-14T00:04:39.494Z,81.36
2018-03-14T00:05:39.447Z,80.98
2018-03-14T00:06:39.443Z,81.55
2018-03-14T00:07:39.439Z,81.07
2018-03-14T00:08:39.434Z,80.88
2018-03-14T00:09:39.430Z,81.36
2018-03-14T00:10:39.426Z,81.93
2018-03-14T00:11:39.422Z,81.93
2018-03-14T00:12:39.418Z,82.12
2018-03-14T00:13:39.412Z,81.84
2018-03-14T00:14:39.409Z,81.84
2018-03-14T00:15:39.405Z,81.93
2018-03-14T00:16:39.400Z,81.74
2018-03-14T00:17:39.397Z,81.36
2018-03-14T00:18:39.394Z,81.74
2018-03-14T00:19:39.390Z,82.31
2018-03-14T00:20:39.384Z,82.31
2018-03-14T00:21:39.380Z,82.40
2018-03-14T00:22:39.376Z,82.69
2018-03-14T00:23:39.375Z,82.69
2018-03-14T00:24:39.369Z,82.31
2018-03-14T00:25:39.365Z,82.21
2018-03-14T00:26:39.360Z,82.69
2018-03-14T00:27:39.356Z,82.40
2018-03-14T00:28:39.352Z,81.93
2018-03-14T00:29:39.348Z,80.41
2018-03-14T00:30:39.344Z,79.55
2018-03-14T00:31:39.340Z,79.74
2018-03-14T00:32:39.339Z,79.55
2018-03-14T00:33:39.331Z,80.41
2018-03-14T00:34:39.328Z,79.55
2018-03-14T00:35:39.324Z,79.74
2018-03-14T00:36:39.321Z,80.60
2018-03-14T00:37:39.314Z,80.60
2018-03-14T00:38:39.311Z,80.41
2018-03-14T00:39:39.307Z,80.69
2018-03-14T00:40:39.302Z,80.88
2018-03-14T00:41:39.299Z,81.26
2018-03-14T00:42:39.295Z,80.88
2018-03-14T00:43:39.291Z,81.45
2018-03-14T00:44:39.286Z,82.31
2018-03-14T00:45:39.280Z,82.40
2018-03-14T00:46:39.277Z,82.50
2018-03-14T00:47:39.273Z,82.69
2018-03-14T00:48:39.269Z,82.59
2018-03-14T00:49:39.264Z,82.97
2018-03-14T00:50:39.261Z,83.36
2018-03-14T00:51:39.257Z,83.07
2018-03-14T00:52:39.252Z,83.50
2018-03-14T00:53:39.248Z,83.88
2018-03-14T00:54:39.244Z,83.88
2018-03-14T00:55:39.239Z,84.64
2018-03-14T00:56:39.234Z,84.36
2018-03-14T00:57:39.231Z,84.74
2018-03-14T00:58:39.226Z,84.74
2018-03-14T00:59:39.225Z,85.40
2018-03-14T01:00:39.218Z,86.07
2018-03-14T01:01:39.212Z,86.35
2018-03-14T01:02:39.208Z,86.35
2018-03-14T01:03:39.202Z,86.25
2018-03-14T01:04:39.199Z,87.01
2018-03-14T01:05:39.197Z,86.63
2018-03-14T01:06:39.190Z,87.11
2018-03-14T01:07:39.185Z,86.25
2018-03-14T01:08:39.180Z,86.35
2018-03-14T01:09:39.175Z,86.82
2018-03-14T01:10:39.170Z,87.49
2018-03-14T01:11:39.166Z,86.91
2018-03-14T01:12:39.210Z,87.68
2018-03-14T01:13:39.157Z,87.77
2018-03-14T01:14:39.152Z,87.45
2018-03-14T01:15:39.151Z,88.34
2018-03-14T01:16:39.141Z,88.15
2018-03-14T01:17:39.138Z,88.20
2018-03-14T01:18:39.132Z,88.29
2018-03-14T01:19:39.128Z,87.30
2018-03-14T01:20:39.120Z,86.78
2018-03-14T01:21:39.121Z,87.39
2018-03-14T01:22:39.111Z,87.54
2018-03-14T01:23:39.106Z,87.16
2018-03-14T01:24:39.100Z,87.45
2018-03-14T01:25:39.096Z,87.06
2018-03-14T01:26:39.092Z,87.73
2018-03-14T01:27:39.085Z,88.39
2018-03-14T01:28:39.080Z,88.87
2018-03-14T01:29:39.076Z,89.06
2018-03-14T01:30:39.071Z,88.39
2018-03-14T01:31:39.066Z,88.39
2018-03-14T01:32:39.059Z,88.96
2018-03-14T01:33:39.055Z,88.10
2018-03-14T01:34:39.050Z,88.10
2018-03-14T01:35:39.045Z,88.01
2018-03-14T01:36:39.039Z,88.48
2018-03-14T01:37:39.034Z,88.77
2018-03-14T01:38:39.029Z,88.48
2018-03-14T01:39:39.025Z,88.58
2018-03-14T01:40:39.018Z,89.15
2018-03-14T01:41:39.014Z,89.43
2018-03-14T01:42:39.009Z,89.53
2018-03-14T01:43:39.003Z,89.06
2018-03-14T01:44:38.998Z,88.68
2018-03-14T01:45:38.992Z,88.77
2018-03-14T01:46:38.987Z,88.43
2018-03-14T01:47:38.983Z,88.58
2018-03-14T01:48:38.976Z,88.87
2018-03-14T01:49:38.972Z,89.06
2018-03-14T01:50:38.966Z,89.43
2018-03-14T01:51:38.960Z,88.96
2018-03-14T01:52:38.954Z,89.25
2018-03-14T01:53:38.950Z,88.29
2018-03-14T01:54:38.945Z,88.01
2018-03-14T01:55:38.940Z,88.58
2018-03-14T01:56:38.934Z,88.29
2018-03-14T01:57:38.932Z,88.77
2018-03-14T01:58:38.923Z,88.68
2018-03-14T01:59:38.919Z,88.10
2018-03-14T02:00:38.913Z,87.92
2018-03-14T02:01:38.908Z,88.39
2018-03-14T02:02:38.903Z,88.29
2018-03-14T02:03:38.897Z,88.01
2018-03-14T02:04:38.891Z,87.73
2018-03-14T02:05:38.887Z,86.87
2018-03-14T02:06:38.881Z,86.54
2018-03-14T02:07:38.876Z,87.11
2018-03-14T02:08:38.869Z,86.07
2018-03-14T02:09:38.866Z,86.16
2018-03-14T02:10:38.860Z,86.63
2018-03-14T02:11:38.855Z,86.68
2018-03-14T02:12:38.849Z,86.59
2018-03-14T02:13:38.844Z,86.49
2018-03-14T02:14:38.838Z,86.30
2018-03-14T02:15:38.834Z,85.74
2018-03-14T02:16:38.830Z,85.83
2018-03-14T02:17:38.822Z,85.83
2018-03-14T02:18:38.819Z,86.59
2018-03-14T02:19:38.813Z,87.06
2018-03-14T02:20:38.806Z,86.44
2018-03-14T02:21:38.800Z,86.21
2018-03-14T02:22:38.796Z,86.21
2018-03-14T02:23:38.791Z,86.02
2018-03-14T02:24:38.788Z,86.35
2018-03-14T02:25:38.780Z,86.30
2018-03-14T02:26:38.774Z,86.63
2018-03-14T02:27:38.768Z,87.01
2018-03-14T02:28:38.763Z,86.40
2018-03-14T02:29:38.766Z,86.30
2018-03-14T02:30:38.753Z,85.78
2018-03-14T02:31:38.747Z,86.54
2018-03-14T02:32:38.740Z,86.44
2018-03-14T02:33:38.736Z,86.54
2018-03-14T02:34:38.730Z,86.44
2018-03-14T02:35:38.726Z,86.07
2018-03-14T02:36:38.719Z,86.21
2018-03-14T02:37:38.715Z,85.49
2018-03-14T02:38:38.711Z,85.68
2018-03-14T02:39:38.704Z,85.49
2018-03-14T02:40:38.701Z,85.78
2018-03-14T02:41:38.693Z,86.44
2018-03-14T02:42:38.689Z,86.35
2018-03-14T02:43:38.682Z,86.35
2018-03-14T02:44:38.680Z,86.25
2018-03-14T02:45:38.671Z,86.44
2018-03-14T02:46:38.666Z,85.59
2018-03-14T02:47:38.667Z,86.02
2018-03-14T02:48:38.655Z,86.07
2018-03-14T02:49:38.650Z,85.78
2018-03-14T02:50:38.645Z,86.49
2018-03-14T02:51:38.640Z,85.97
2018-03-14T02:52:38.633Z,85.87
2018-03-14T02:53:38.628Z,86.40
2018-03-14T02:54:38.624Z,86.30
2018-03-14T02:55:38.619Z,86.02
2018-03-14T02:56:38.614Z,86.02
2018-03-14T02:57:38.606Z,86.11
2018-03-14T02:58:38.602Z,86.68
2018-03-14T02:59:38.597Z,86.16
2018-03-14T03:00:38.591Z,86.30
2018-03-14T03:01:38.587Z,86.72
2018-03-14T03:02:38.581Z,86.49
2018-03-14T03:03:38.575Z,86.78
2018-03-14T03:04:38.569Z,87.01
2018-03-14T03:05:38.564Z,86.82
2018-03-14T03:06:38.558Z,86.87
2018-03-14T03:07:38.554Z,86.97
2018-03-14T03:08:38.548Z,86.68
2018-03-14T03:09:38.544Z,86.59
2018-03-14T03:10:38.538Z,86.97
2018-03-14T03:11:38.532Z,86.35
2018-03-14T03:12:38.526Z,86.59
2018-03-14T03:13:38.522Z,86.30
2018-03-14T03:14:38.516Z,86.54
2018-03-14T03:15:38.512Z,86.25
2018-03-14T03:16:38.506Z,86.11
2018-03-14T03:17:38.502Z,87.06
2018-03-14T03:18:38.495Z,86.78
2018-03-14T03:19:38.490Z,86.97
2018-03-14T03:20:38.484Z,86.87
2018-03-14T03:21:38.480Z,87.11
2018-03-14T03:22:38.475Z,86.68
2018-03-14T03:23:38.469Z,87.25
2018-03-14T03:24:38.464Z,87.06
2018-03-14T03:25:38.459Z,86.11
2018-03-14T03:26:38.455Z,86.97
2018-03-14T03:27:38.449Z,86.40
2018-03-14T03:28:38.441Z,86.30
2018-03-14T03:29:38.437Z,86.78
2018-03-14T03:30:38.432Z,86.30
2018-03-14T03:31:38.429Z,86.40
2018-03-14T03:32:38.421Z,86.40
2018-03-14T03:33:38.415Z,86.59
2018-03-14T03:34:38.412Z,86.97
2018-03-14T03:35:38.406Z,86.68
2018-03-14T03:36:38.400Z,87.06
2018-03-14T03:37:38.394Z,86.97
2018-03-14T03:38:38.389Z,86.40
2018-03-14T03:39:38.385Z,86.30
2018-03-14T03:40:38.379Z,86.02
2018-03-14T03:41:38.372Z,86.54
2018-03-14T03:42:38.368Z,86.49
2018-03-14T03:43:38.418Z,86.78
2018-03-14T03:44:38.356Z,86.59
2018-03-14T03:45:38.351Z,86.49
2018-03-14T03:46:38.346Z,86.40
2018-03-14T03:47:38.341Z,86.11
2018-03-14T03:48:38.334Z,86.78
2018-03-14T03:49:38.329Z,86.40
2018-03-14T03:50:38.324Z,85.97
2018-03-14T03:51:38.320Z,86.02
2018-03-14T03:52:38.314Z,85.87
2018-03-14T03:53:38.312Z,86.21
2018-03-14T03:54:38.305Z,85.64
2018-03-14T03:55:38.302Z,85.87
2018-03-14T03:56:38.293Z,85.74
2018-03-14T03:57:38.288Z,86.11
2018-03-14T03:58:38.283Z,85.68
2018-03-14T03:59:38.278Z,85.07
2018-03-14T04:00:38.306Z,85.11
2018-03-14T04:01:38.266Z,85.49
2018-03-14T04:02:38.262Z,85.11
2018-03-14T04:03:38.256Z,85.26
2018-03-14T04:04:38.250Z,85.74
2018-03-14T04:05:38.245Z,85.64
2018-03-14T04:06:38.240Z,85.55
2018-03-14T04:07:38.236Z,85.83
2018-03-14T04:08:38.229Z,86.40
2018-03-14T04:09:38.224Z,85.93
2018-03-14T04:10:38.219Z,85.83
2018-03-14T04:11:38.212Z,86.21
2018-03-14T04:12:38.206Z,86.30
2018-03-14T04:13:38.201Z,86.25
2018-03-14T04:14:38.205Z,86.21
2018-03-14T04:15:38.191Z,86.11
2018-03-14T04:16:38.186Z,86.21
2018-03-14T04:17:38.180Z,86.02
2018-03-14T04:18:38.176Z,86.30
2018-03-14T04:19:38.172Z,86.78
2018-03-14T04:20:38.164Z,86.78
2018-03-14T04:21:38.158Z,86.97
2018-03-14T04:22:38.154Z,86.97
2018-03-14T04:23:38.150Z,87.16
2018-03-14T04:24:38.142Z,87.16
2018-03-14T04:25:38.139Z,87.25
2018-03-14T04:26:38.131Z,87.35
2018-03-14T04:27:38.128Z,87.63
2018-03-14T04:28:38.120Z,88.01
2018-03-14T04:29:38.115Z,88.29
2018-03-14T04:30:38.110Z,88.58
2018-03-14T04:31:38.109Z,88.10
2018-03-14T04:32:38.100Z,89.25
2018-03-14T04:33:38.096Z,88.58
2018-03-14T04:34:38.089Z,88.96
2018-03-14T04:35:38.083Z,89.15
2018-03-14T04:36:38.077Z,89.25
2018-03-14T04:37:38.072Z,89.15
2018-03-14T04:38:38.069Z,89.43
2018-03-14T04:39:38.064Z,89.06
2018-03-14T04:40:38.057Z,89.06
2018-03-14T04:41:38.050Z,88.68
2018-03-14T04:42:38.046Z,89.15
2018-03-14T04:43:38.041Z,88.39
2018-03-14T04:44:38.034Z,88.29
2018-03-14T04:45:38.034Z,88.68
2018-03-14T04:46:38.024Z,88.77
2018-03-14T04:47:38.017Z,88.77
2018-03-14T04:48:38.010Z,88.48
2018-03-14T04:49:38.005Z,88.39
2018-03-14T04:50:38.001Z,88.87
2018-03-14T04:51:37.996Z,88.68
2018-03-14T04:52:37.989Z,89.25
2018-03-14T04:53:37.984Z,89.25
2018-03-14T04:54:37.981Z,89.15
2018-03-14T04:55:37.976Z,89.06
2018-03-14T10:09:22.992Z,64.97
2018-03-14T10:10:22.688Z,66.30
2018-03-14T10:11:22.688Z,65.92
2018-03-14T10:12:22.687Z,65.86
2018-03-14T10:13:22.687Z,66.02
2018-03-14T10:14:22.683Z,66.62
2018-03-14T10:15:22.682Z,66.05
2018-03-14T10:16:22.681Z,67.00
2018-03-14T10:17:22.680Z,65.86
2018-03-14T10:18:22.678Z,67.00
2018-03-14T10:19:22.677Z,67.86
2018-03-14T10:20:22.676Z,66.62
2018-03-14T10:21:22.672Z,66.33
2018-03-14T10:22:22.685Z,65.95
2018-03-14T10:23:22.671Z,65.77
2018-03-14T10:24:22.669Z,65.77
2018-03-14T10:25:22.668Z,64.90
2018-03-14T10:26:22.665Z,65.77
2018-03-14T10:27:22.669Z,64.81
2018-03-14T10:28:22.663Z,64.72
2018-03-14T10:29:22.663Z,63.67
2018-03-14T10:30:22.662Z,64.28
2018-03-14T10:31:22.660Z,63.10
2018-03-14T10:32:22.658Z,61.80
2018-03-14T10:33:22.658Z,60.08
2018-03-14T10:34:22.658Z,58.46
2018-03-14T10:35:22.657Z,57.31
2018-03-14T10:36:22.659Z,56.48
2018-03-14T10:37:22.658Z,58.01
2018-03-14T10:38:22.659Z,58.46
2018-03-14T10:39:22.659Z,59.89
2018-03-14T10:40:22.661Z,60.11
2018-03-14T10:41:22.912Z,58.61
2018-03-14T10:42:22.661Z,57.82
2018-03-14T10:43:22.664Z,58.55
2018-03-14T10:44:22.667Z,59.41
2018-03-14T10:45:22.669Z,59.41
2018-03-14T10:46:22.668Z,58.46
2018-03-14T10:47:22.672Z,59.95
2018-03-14T10:48:22.673Z,60.91
2018-03-14T10:49:22.676Z,61.86
2018-03-14T10:50:22.676Z,62.49
2018-03-14T10:51:22.676Z,63.35
2018-03-14T10:52:22.678Z,62.97
2018-03-14T10:53:22.678Z,63.07
2018-03-14T10:54:22.681Z,61.90
2018-03-14T10:55:22.679Z,60.66
2018-03-14T10:56:22.679Z,60.85
2018-03-14T10:57:22.680Z,61.80
2018-03-14T10:58:22.679Z,62.37
2018-03-14T10:59:22.686Z,64.28
2018-03-14T11:00:22.688Z,64.84
2018-03-14T11:01:22.681Z,65.03
2018-03-14T11:02:22.679Z,64.94
2018-03-14T11:03:22.679Z,65.32
2018-03-14T11:04:22.677Z,65.51
2018-03-14T11:05:22.678Z,65.13
2018-03-14T11:06:22.677Z,64.18
2018-03-14T11:07:22.675Z,63.60
2018-03-14T11:08:22.677Z,63.04
2018-03-14T11:09:22.676Z,64.34
2018-03-14T11:10:22.675Z,64.24
2018-03-14T11:11:22.673Z,64.53
2018-03-14T11:12:22.674Z,64.90
2018-03-14T11:13:22.672Z,64.72
2018-03-14T11:14:22.669Z,64.72
2018-03-14T11:15:22.669Z,64.72
2018-03-14T11:16:22.668Z,65.61
2018-03-14T11:17:22.667Z,64.28
2018-03-14T11:18:22.665Z,63.51
2018-03-14T11:19:22.665Z,62.56
2018-03-14T11:20:22.690Z,62.40
2018-03-14T11:21:22.662Z,64.12
2018-03-14T11:22:22.663Z,63.45
2018-03-14T11:23:22.663Z,62.88
2018-03-14T11:24:22.662Z,63.17
2018-03-14T11:25:22.662Z,63.45
2018-03-14T11:26:22.659Z,62.68
2018-03-14T11:27:22.661Z,62.68
2018-03-14T11:28:22.660Z,63.45
2018-03-14T11:29:22.659Z,62.12
2018-03-14T11:30:22.656Z,62.72
2018-03-14T11:31:22.658Z,61.76
2018-03-14T11:32:22.658Z,59.95
2018-03-14T11:33:22.657Z,59.86
2018-03-14T11:34:22.657Z,60.43
2018-03-14T11:35:22.658Z,61.67
2018-03-14T11:36:22.659Z,61.67
2018-03-14T11:37:22.659Z,63.04
2018-03-14T11:38:22.657Z,62.15
2018-03-14T11:39:22.656Z,62.34
2018-03-14T11:40:22.658Z,63.96
2018-03-14T11:41:22.658Z,64.34
2018-03-14T11:42:22.691Z,64.40
2018-03-14T11:43:22.659Z,64.78
2018-03-14T11:44:22.662Z,64.87
2018-03-14T11:45:22.662Z,64.78
2018-03-14T11:46:22.667Z,64.97
2018-03-14T11:47:22.658Z,64.87
2018-03-14T11:48:22.659Z,64.97
2018-03-14T11:49:22.658Z,64.97
2018-03-14T11:50:22.658Z,64.97
2018-03-14T11:51:22.659Z,64.87
2018-03-14T11:52:22.658Z,64.78
2018-03-14T11:53:22.661Z,64.24
2018-03-14T11:54:22.657Z,63.96
2018-03-14T11:55:22.657Z,62.91
2018-03-14T11:56:22.940Z,62.34
2018-03-14T11:57:22.690Z,62.62
2018-03-14T11:58:22.659Z,61.57
2018-03-14T11:59:22.659Z,62.08
2018-03-14T12:00:22.662Z,62.46
2018-03-14T12:01:22.663Z,60.46
2018-03-14T12:02:22.663Z,60.58
2018-03-14T12:03:22.665Z,59.63
2018-03-14T12:04:22.668Z,59.82
2018-03-14T12:05:22.670Z,58.58
2018-03-14T12:06:22.671Z,58.46
2018-03-14T12:07:22.727Z,59.41
2018-03-14T12:08:22.679Z,59.99
2018-03-14T12:09:22.680Z,61.19
2018-03-14T12:10:22.680Z,61.86
2018-03-14T12:11:22.683Z,62.05
2018-03-14T12:12:22.695Z,60.91
2018-03-14T12:13:22.693Z,61.19
2018-03-14T12:14:22.693Z,61.57
2018-03-14T12:15:22.691Z,61.48
2018-03-14T12:16:22.693Z,62.62
2018-03-14T12:17:22.697Z,62.62
2018-03-14T12:18:22.698Z,62.21
2018-03-14T12:19:22.700Z,63.35
2018-03-14T12:20:22.700Z,63.73
2018-03-14T12:21:22.702Z,64.65
2018-03-14T12:22:22.702Z,64.28
2018-03-14T12:23:22.703Z,64.56
2018-03-14T12:24:22.704Z,64.56
2018-03-14T12:25:22.704Z,64.56
2018-03-14T12:26:22.704Z,64.47
2018-03-14T12:27:22.706Z,64.75
2018-03-14T12:28:22.707Z,64.47
2018-03-14T12:29:22.706Z,64.65
2018-03-14T12:30:22.706Z,64.47
2018-03-14T12:31:22.709Z,64.37
2018-03-14T12:32:22.706Z,64.84
2018-03-14T12:33:22.707Z,64.28
2018-03-14T12:34:22.706Z,64.18
2018-03-14T12:35:22.705Z,64.65
2018-03-14T12:36:22.705Z,64.40
2018-03-14T12:37:22.706Z,63.64
2018-03-14T12:38:22.709Z,63.73
2018-03-14T12:39:22.704Z,64.28
2018-03-14T12:40:22.709Z,64.56
2018-03-14T12:41:22.704Z,65.51
2018-03-14T12:42:22.705Z,65.70
2018-03-14T12:43:22.703Z,65.80
2018-03-14T12:44:22.703Z,66.85
2018-03-14T12:45:22.703Z,67.32
2018-03-14T12:46:22.701Z,67.22
2018-03-14T12:47:22.702Z,66.85
2018-03-14T12:48:22.702Z,67.03
2018-03-14T12:49:22.704Z,66.97
2018-03-14T12:50:22.708Z,67.07
2018-03-14T12:51:22.699Z,66.50
2018-03-14T12:52:22.699Z,65.92
2018-03-14T12:53:22.699Z,65.45
2018-03-14T12:54:22.698Z,65.67
2018-03-14T12:55:22.699Z,65.67
2018-03-14T12:56:22.696Z,64.43
2018-03-14T12:57:22.701Z,64.24
2018-03-14T12:58:22.696Z,63.86
2018-03-14T12:59:22.697Z,62.81
2018-03-14T13:00:22.698Z,63.00
2018-03-14T13:01:22.698Z,62.81
2018-03-14T13:02:22.698Z,62.97
2018-03-14T13:03:22.697Z,63.96
2018-03-14T13:04:22.697Z,63.45
2018-03-14T13:05:22.697Z,62.68
2018-03-14T13:06:22.702Z,62.97
2018-03-14T13:07:22.698Z,62.05
2018-03-14T13:08:22.698Z,62.84
2018-03-14T13:09:22.698Z,61.51
2018-03-14T13:10:23.004Z,61.25
2018-03-14T13:11:22.700Z,61.54
2018-03-14T13:12:22.700Z,59.38
2018-03-14T13:13:22.702Z,59.19
2018-03-14T13:14:22.704Z,58.42
2018-03-14T13:15:22.707Z,58.48
2018-03-14T13:16:22.707Z,58.87
2018-03-14T13:17:22.713Z,59.44
2018-03-14T13:18:22.714Z,59.44
2018-03-14T13:19:22.718Z,59.06
2018-03-14T13:20:22.719Z,60.30
2018-03-14T13:21:22.721Z,59.92
2018-03-14T13:22:22.723Z,59.99
2018-03-14T13:23:22.727Z,59.92
2018-03-14T13:24:22.730Z,59.63
2018-03-14T13:25:22.733Z,61.25
2018-03-14T13:26:22.735Z,59.95
2018-03-14T13:27:22.737Z,59.19
2018-03-14T13:28:22.739Z,58.90
2018-03-14T13:29:22.750Z,58.33
2018-03-14T13:30:22.744Z,59.56
2018-03-14T13:31:22.749Z,58.64
2018-03-14T13:32:22.751Z,56.45
2018-03-14T13:33:22.755Z,55.58
2018-03-14T13:34:22.758Z,55.11
2018-03-14T13:35:22.761Z,56.92
2018-03-14T13:36:22.765Z,55.99
2018-03-14T13:37:22.772Z,56.67
2018-03-14T13:38:22.772Z,56.85
2018-03-14T13:39:22.774Z,53.53
2018-03-14T13:40:22.778Z,53.70
2018-03-14T13:41:22.783Z,52.55
2018-03-14T13:42:22.985Z,52.72
2018-03-14T13:43:22.790Z,54.75
2018-03-14T13:44:22.796Z,52.65
2018-03-14T13:45:22.799Z,53.51
2018-03-14T13:46:22.802Z,53.03
2018-03-14T13:47:22.806Z,52.55
2018-03-14T13:48:22.810Z,51.79
2018-03-14T13:49:22.816Z,51.79
2018-03-14T13:50:22.817Z,52.65
2018-03-14T13:51:22.823Z,51.70
2018-03-14T13:52:22.827Z,53.44
2018-03-14T13:53:22.832Z,53.53
2018-03-14T13:54:22.836Z,51.53
2018-03-14T13:55:22.840Z,51.31
2018-03-14T13:56:22.846Z,51.89
2018-03-14T13:57:22.850Z,51.76
2018-03-14T13:58:22.873Z,53.03
2018-03-14T13:59:22.858Z,53.13
2018-03-14T14:00:22.862Z,54.63
2018-03-14T14:01:22.865Z,53.86
2018-03-14T14:02:22.870Z,53.67
2018-03-14T14:03:22.873Z,53.61
2018-03-14T14:04:22.879Z,52.34
2018-03-14T14:05:22.881Z,52.36
2018-03-14T14:06:22.886Z,53.00
2018-03-14T14:07:22.892Z,54.82
2018-03-14T14:08:22.893Z,53.17
2018-03-14T14:09:22.896Z,53.62
2018-03-14T14:10:22.899Z,55.18
2018-03-14T14:11:22.901Z,56.23
2018-03-14T14:12:22.904Z,56.06
2018-03-14T14:13:22.906Z,55.87
2018-03-14T14:14:22.916Z,54.85
2018-03-14T14:15:22.912Z,54.37
2018-03-14T14:16:22.916Z,54.30
2018-03-14T14:17:22.921Z,52.96
2018-03-14T14:18:22.921Z,51.56
2018-03-14T14:19:22.925Z,49.93
2018-03-14T14:20:22.929Z,50.21
2018-03-14T14:21:22.931Z,50.19
2018-03-14T14:22:22.933Z,50.93
2018-03-14T14:23:22.938Z,50.74
2018-03-14T14:24:22.942Z,50.90
2018-03-14T14:25:22.944Z,51.31
2018-03-14T14:26:22.948Z,50.74
2018-03-14T14:27:22.950Z,50.74
2018-03-14T14:28:22.955Z,51.31
2018-03-14T14:29:22.968Z,49.88
2018-03-14T14:30:22.960Z,50.81
2018-03-14T14:31:22.963Z,52.65
2018-03-14T14:32:22.967Z,51.21
2018-03-14T14:33:22.971Z,50.45
2018-03-14T14:34:22.977Z,49.57
2018-03-14T14:35:22.982Z,50.45
2018-03-14T14:36:22.981Z,50.84
2018-03-14T14:37:22.986Z,50.74
2018-03-14T14:38:22.988Z,49.69
2018-03-14T14:39:22.991Z,49.40
2018-03-14T14:40:22.995Z,49.30
2018-03-14T14:41:22.998Z,49.78
2018-03-14T14:42:23.002Z,49.40
2018-03-14T14:43:23.014Z,48.54
2018-03-14T14:44:23.010Z,48.54
2018-03-14T14:45:23.014Z,48.83
2018-03-14T14:46:23.016Z,48.33
2018-03-14T14:47:23.020Z,48.90
2018-03-14T14:48:23.023Z,50.07
2018-03-14T14:49:23.028Z,51.70
2018-03-14T14:50:23.033Z,52.20
2018-03-14T14:51:23.036Z,49.71
2018-03-14T14:52:23.040Z,49.30
2018-03-14T14:53:23.043Z,49.62
2018-03-14T14:54:23.046Z,49.98
2018-03-14T14:55:23.050Z,50.16
2018-03-14T14:56:23.054Z,51.21
2018-03-14T14:57:23.058Z,52.46
2018-03-14T14:58:23.062Z,53.32
2018-03-14T14:59:23.064Z,53.80
2018-03-14T15:00:23.068Z,55.13
2018-03-14T15:01:23.075Z,53.22
2018-03-14T15:02:23.074Z,53.80
2018-03-14T15:03:23.125Z,53.61
2018-03-14T15:04:23.082Z,53.70
2018-03-14T15:05:23.085Z,53.49
2018-03-14T15:06:23.088Z,54.79
2018-03-14T15:07:23.091Z,55.08
2018-03-14T15:08:23.095Z,55.72
2018-03-14T15:09:23.097Z,56.67
2018-03-14T15:10:23.101Z,56.96
2018-03-14T15:11:23.103Z,57.63
2018-03-14T15:12:23.107Z,56.89
2018-03-14T15:13:23.109Z,56.70
2018-03-14T15:14:23.112Z,55.20
2018-03-14T15:15:23.159Z,54.53
2018-03-14T15:16:23.117Z,54.72
2018-03-14T15:17:23.120Z,55.18
2018-03-14T15:18:23.121Z,54.79
2018-03-14T15:19:23.125Z,54.32
2018-03-14T15:20:23.127Z,55.08
2018-03-14T15:21:23.170Z,54.99
2018-03-14T15:22:23.167Z,54.99
2018-03-14T15:23:23.134Z,54.41
2018-03-14T15:24:23.139Z,54.79
2018-03-14T15:25:23.139Z,54.70
2018-03-14T15:26:23.141Z,55.24
2018-03-14T15:27:23.143Z,56.01
2018-03-14T15:28:23.146Z,56.26
2018-03-14T15:29:23.147Z,56.65
2018-03-14T15:30:23.150Z,56.93
2018-03-14T15:31:23.155Z,57.06
2018-03-14T15:32:23.152Z,56.29
2018-03-14T15:33:23.155Z,55.91
2018-03-14T15:34:23.158Z,55.15
2018-03-14T15:35:23.159Z,55.34
2018-03-14T15:36:23.162Z,56.01
2018-03-14T15:37:23.163Z,55.15
2018-03-14T15:38:23.165Z,55.62
2018-03-14T15:39:23.165Z,55.91
2018-03-14T15:40:23.167Z,56.77
2018-03-14T15:41:23.169Z,57.34
2018-03-14T15:42:23.170Z,56.96
2018-03-14T15:43:23.172Z,56.58
2018-03-14T15:44:23.175Z,56.10
2018-03-14T15:45:23.177Z,55.24
2018-03-14T15:46:23.176Z,55.15
2018-03-14T15:47:23.177Z,54.83
2018-03-14T15:48:23.180Z,55.69
2018-03-14T15:49:23.181Z,56.74
2018-03-14T15:50:23.182Z,56.74
2018-03-14T15:51:23.183Z,57.09
2018-03-14T15:52:23.184Z,57.19
2018-03-14T15:53:23.183Z,57.95
2018-03-14T15:54:23.186Z,57.86
2018-03-14T15:55:23.185Z,58.40
2018-03-14T15:56:23.185Z,58.78
2018-03-14T15:57:23.187Z,59.16
2018-03-14T15:58:23.185Z,59.92
2018-03-14T15:59:23.188Z,59.83
2018-03-14T16:00:23.187Z,58.97
2018-03-14T16:01:23.186Z,59.45
2018-03-14T16:02:23.186Z,59.83
2018-03-14T16:03:23.186Z,59.83
2018-03-14T16:04:23.186Z,60.49
2018-03-14T16:05:23.186Z,60.30
2018-03-14T16:06:23.186Z,60.49
2018-03-14T16:07:23.188Z,60.59
2018-03-14T16:08:23.189Z,60.49
2018-03-14T16:09:23.184Z,60.97
2018-03-14T16:10:23.182Z,60.49
2018-03-14T16:11:23.184Z,60.59
2018-03-14T16:12:23.299Z,60.88
2018-03-14T16:13:23.182Z,60.78
2018-03-14T16:14:23.180Z,60.49
2018-03-14T16:15:23.181Z,59.89
2018-03-14T16:16:23.180Z,60.18
2018-03-14T16:17:23.179Z,60.56
2018-03-14T16:18:23.178Z,60.66
2018-03-14T16:19:23.176Z,60.75
2018-03-14T16:20:23.176Z,60.56
2018-03-14T16:21:23.174Z,60.56
2018-03-14T16:22:23.173Z,60.37
2018-03-14T16:23:23.171Z,60.37
2018-03-14T16:24:23.171Z,60.85
2018-03-14T16:25:23.170Z,60.56
2018-03-14T16:26:23.169Z,59.80
2018-03-14T16:27:23.167Z,60.08
2018-03-14T16:28:23.261Z,59.80
2018-03-14T16:29:23.166Z,59.80
2018-03-14T16:30:23.164Z,59.03
2018-03-14T16:31:23.164Z,59.70
2018-03-14T16:32:23.162Z,59.89
2018-03-14T16:33:23.161Z,59.80
2018-03-14T16:34:23.161Z,59.80
2018-03-14T16:35:23.163Z,59.70
2018-03-14T16:36:23.157Z,60.08
2018-03-14T16:37:23.158Z,60.08
2018-03-14T16:38:23.156Z,60.66
2018-03-14T16:39:23.155Z,60.37
2018-03-14T16:40:23.153Z,60.46
2018-03-14T16:41:23.153Z,60.46
2018-03-14T16:42:23.150Z,60.18
2018-03-14T16:43:23.150Z,60.66
2018-03-14T16:44:23.149Z,60.85
2018-03-14T16:45:23.147Z,60.56
2018-03-14T16:46:23.146Z,60.66
2018-03-14T16:47:23.142Z,61.13
2018-03-14T16:48:23.142Z,60.94
2018-03-14T16:49:23.240Z,60.75
2018-03-14T16:50:23.143Z,60.75
2018-03-14T16:51:23.144Z,60.66
2018-03-14T16:52:23.136Z,61.32
2018-03-14T16:53:23.136Z,61.70
2018-03-14T16:54:23.132Z,61.99
2018-03-14T16:55:23.131Z,61.70
2018-03-14T16:56:23.131Z,61.51
2018-03-14T16:57:23.129Z,61.80
2018-03-14T16:58:23.126Z,62.27
2018-03-14T16:59:23.127Z,62.37
2018-03-14T17:00:23.124Z,62.34
2018-03-14T17:01:23.122Z,62.81
2018-03-14T17:02:23.122Z,62.91
2018-03-14T17:03:23.120Z,63.76
2018-03-14T17:04:23.117Z,63.86
2018-03-14T17:05:23.115Z,63.48
2018-03-14T17:06:23.114Z,64.05
2018-03-14T17:07:23.112Z,64.24
2018-03-14T17:08:23.111Z,64.15
2018-03-14T17:09:23.110Z,64.81
2018-03-14T17:10:23.107Z,64.81
2018-03-14T17:11:23.105Z,65.10
2018-03-14T17:12:23.104Z,65.10
2018-03-14T17:13:23.105Z,65.48
2018-03-14T17:14:27.281Z,65.58
2018-03-14T17:15:23.098Z,65.67
2018-03-14T17:16:23.096Z,65.86
2018-03-14T17:17:23.098Z,65.67
2018-03-14T17:18:23.093Z,65.95
2018-03-14T17:19:23.090Z,65.92
2018-03-14T17:20:23.088Z,66.11
2018-03-14T17:21:23.087Z,66.97
2018-03-14T17:22:23.085Z,66.78
2018-03-14T17:23:23.082Z,66.59
2018-03-14T17:24:23.081Z,66.68
2018-03-14T17:25:23.080Z,66.43
2018-03-14T17:26:23.077Z,66.33
2018-03-14T17:27:23.074Z,66.49
2018-03-14T17:28:23.072Z,66.30
2018-03-14T17:29:23.072Z,67.16
2018-03-14T17:30:23.069Z,67.92
2018-03-14T17:31:23.066Z,67.82
2018-03-14T17:32:23.064Z,68.40
2018-03-14T17:33:23.064Z,68.21
2018-03-14T17:34:23.061Z,68.30
2018-03-14T17:35:23.062Z,67.92
2018-03-14T17:36:23.091Z,68.21
2018-03-14T17:37:23.055Z,68.59
2018-03-14T17:38:23.051Z,68.21
2018-03-14T17:39:23.050Z,67.44
2018-03-14T17:40:23.048Z,68.21
2018-03-14T17:41:23.045Z,68.11
2018-03-14T17:42:23.043Z,68.87
2018-03-14T17:43:23.040Z,68.77
2018-03-14T17:44:23.038Z,68.68
2018-03-14T17:45:23.036Z,68.55
2018-03-14T17:46:23.033Z,69.54
2018-03-14T17:47:23.032Z,68.49
2018-03-14T17:48:23.030Z,69.63
2018-03-14T17:49:23.027Z,68.68
2018-03-14T17:50:23.026Z,68.65
2018-03-14T17:51:23.021Z,69.69
2018-03-14T17:52:23.024Z,69.41
2018-03-14T17:53:23.018Z,70.07
2018-03-14T17:54:23.013Z,70.26
2018-03-14T17:55:23.013Z,70.26
2018-03-14T17:56:23.011Z,70.64
2018-03-14T17:57:23.007Z,70.64
2018-03-14T17:58:23.005Z,70.54
2018-03-14T17:59:23.001Z,69.79
2018-03-14T18:00:23.001Z,70.17
2018-03-14T18:01:22.999Z,70.07
2018-03-14T18:02:22.994Z,71.31
2018-03-14T18:03:22.993Z,71.94
2018-03-14T18:04:22.990Z,72.32
2018-03-14T18:05:22.988Z,72.51